Time;durP1;ratioP1;P1;durP2;ratioP2;P2;SDS_P1;SDS_P2;PMS_P1;PMS_P2;Temp;Humidity;BMP_temperature;BMP_pressure;BME280_temperature;BME280_humidity;BME280_pressure;Samples;Min_cycle;Max_cycle;Signal;HPM_P1;HPM_P2
2021/12/05 00:24:26;;;;;;;0.30;0.30;;;;;;;4.52;92.20;94102.97;4389388;32;20444;-59
2021/12/05 00:26:59;;;;;;;0.60;0.60;;;;;;;4.64;92.47;94111.19;4379649;32;20373;-60
2021/12/05 00:29:35;;;;;;;1.40;0.40;;;;;;;4.63;92.77;94120.12;4389248;32;20295;-59
2021/12/05 00:32:08;;;;;;;0.70;0.70;;;;;;;4.49;91.99;94117.47;4385244;32;20303;-60
2021/12/05 00:51:14;;;;;;;2.27;0.60;;;;;;;4.66;90.56;94139.81;4381999;32;20203;-59
2021/12/05 01:12:39;;;;;;;0.60;0.60;;;;;;;4.49;88.34;94156.06;4388167;32;20281;-60
2021/12/05 01:15:09;;;;;;;0.70;0.43;;;;;;;4.61;87.98;94159.03;4384115;32;20280;-60
2021/12/05 01:17:44;;;;;;;2.00;0.70;;;;;;;4.51;87.85;94143.44;4384468;32;20280;-60
2021/12/05 01:20:14;;;;;;;1.13;0.70;;;;;;;4.27;88.97;94161.88;4393118;32;20351;-60
2021/12/05 01:22:45;;;;;;;2.23;0.80;;;;;;;4.24;88.85;94169.50;4380209;32;20269;-60
2021/12/05 01:27:45;;;;;;;0.40;0.40;;;;;;;4.53;88.38;94177.28;4379228;32;20298;-60
2021/12/05 01:30:26;;;;;;;1.57;0.63;;;;;;;4.48;88.70;94165.78;4376975;32;20323;-60
2021/12/05 01:38:20;;;;;;;1.23;0.70;;;;;;;4.54;88.60;94171.75;4385059;32;20299;-60
2021/12/05 01:49:49;;;;;;;0.40;0.40;;;;;;;4.27;88.76;94184.69;4384505;32;20321;-60
2021/12/05 01:57:41;;;;;;;0.83;0.47;;;;;;;4.44;87.91;94191.03;4387925;32;20284;-60
2021/12/05 02:03:11;;;;;;;1.60;0.50;;;;;;;4.66;87.92;94182.59;4383548;32;20273;-60
2021/12/05 02:11:16;;;;;;;1.13;0.60;;;;;;;4.61;87.38;94184.50;4380816;32;20276;-60
2021/12/05 02:32:53;;;;;;;0.87;0.50;;;;;;;4.55;87.25;94183.81;4373095;32;20296;-60
2021/12/05 02:43:33;;;;;;;1.67;0.60;;;;;;;4.18;91.20;94196.88;4387318;32;20309;-60
2021/12/05 02:46:01;;;;;;;1.30;0.60;;;;;;;4.32;91.28;94195.16;4378618;32;20339;-60
2021/12/05 02:48:30;;;;;;;0.87;0.50;;;;;;;4.04;92.98;94197.56;4386656;32;20399;-60
2021/12/05 02:50:58;;;;;;;1.57;0.80;;;;;;;4.20;92.79;94200.00;4389791;32;20380;-60
2021/12/05 02:53:35;;;;;;;0.70;0.63;;;;;;;4.00;93.16;94203.63;4389131;32;20298;-60
2021/12/05 02:56:02;;;;;;;1.07;0.60;;;;;;;4.01;93.70;94197.34;4375592;32;20281;-60
2021/12/05 03:03:27;;;;;;;1.17;0.40;;;;;;;4.27;92.47;94195.97;4385632;32;20191;-60
2021/12/05 03:06:00;;;;;;;0.43;0.43;;;;;;;4.39;92.28;94185.06;4374137;32;20417;-60
2021/12/05 03:08:26;;;;;;;0.60;0.50;;;;;;;4.57;91.66;94183.53;4386857;32;20289;-60
2021/12/05 03:10:53;;;;;;;0.57;0.57;;;;;;;4.61;91.16;94190.53;4382687;32;20339;-60
2021/12/05 03:13:19;;;;;;;0.40;0.40;;;;;;;4.43;91.58;94199.19;4384980;32;20208;-59
2021/12/05 03:15:44;;;;;;;0.53;0.40;;;;;;;4.44;90.89;94211.25;4380317;32;20273;-59
2021/12/05 03:18:09;;;;;;;0.57;0.50;;;;;;;4.48;90.25;94217.50;4382053;32;20211;-60
2021/12/05 03:20:35;;;;;;;0.40;0.40;;;;;;;4.34;90.31;94221.91;4379481;32;20201;-59
2021/12/05 03:23:01;;;;;;;0.30;0.30;;;;;;;4.25;90.43;94220.94;4387701;32;20189;-59
2021/12/05 03:25:27;;;;;;;1.40;0.73;;;;;;;4.10;89.72;94227.16;4382093;32;20207;-60
2021/12/05 03:27:53;;;;;;;2.63;0.60;;;;;;;3.99;90.82;94223.84;4372817;32;20272;-59
2021/12/05 03:30:22;;;;;;;2.00;0.53;;;;;;;4.07;90.44;94228.50;4380002;32;20284;-60
2021/12/05 03:32:50;;;;;;;0.43;0.40;;;;;;;3.88;90.97;94226.88;4377858;32;20212;-60
2021/12/05 03:35:19;;;;;;;3.60;0.70;;;;;;;3.90;90.59;94227.38;4384357;32;20268;-60
2021/12/05 03:37:47;;;;;;;0.60;0.50;;;;;;;3.78;90.02;94225.13;4377235;32;20295;-60
2021/12/05 03:40:13;;;;;;;2.53;0.53;;;;;;;3.93;89.12;94227.59;4382996;32;20282;-60
2021/12/05 03:42:39;;;;;;;2.07;0.50;;;;;;;4.01;88.40;94228.81;4375954;32;20303;-59
2021/12/05 03:45:10;;;;;;;0.97;0.40;;;;;;;3.89;88.40;94228.44;4382959;32;20291;-60
2021/12/05 03:47:36;;;;;;;1.40;0.70;;;;;;;4.14;87.63;94228.16;4380252;32;20330;-60
2021/12/05 03:50:05;;;;;;;0.40;0.40;;;;;;;4.07;87.20;94236.38;4380195;32;20284;-60
2021/12/05 03:52:30;;;;;;;2.17;0.40;;;;;;;4.01;86.65;94226.97;4381012;32;20371;-60
2021/12/05 03:54:56;;;;;;;1.67;0.60;;;;;;;4.16;86.41;94227.88;4381819;32;20294;-60
2021/12/05 03:57:21;;;;;;;2.13;0.90;;;;;;;4.11;86.07;94229.50;4378257;32;20300;-60
2021/12/05 03:59:47;;;;;;;2.20;0.40;;;;;;;4.12;86.14;94225.81;4375556;32;20193;-60
2021/12/05 04:02:12;;;;;;;2.10;0.50;;;;;;;3.91;85.40;94227.09;4381974;32;20185;-60
2021/12/05 04:04:38;;;;;;;1.70;0.30;;;;;;;3.80;85.81;94223.00;4370346;32;20200;-60
2021/12/05 04:07:04;;;;;;;2.63;0.50;;;;;;;3.76;85.52;94219.38;4383524;32;20191;-61
2021/12/05 04:09:30;;;;;;;2.73;0.80;;;;;;;3.80;84.85;94218.53;4381318;32;20249;-60
2021/12/05 04:12:00;;;;;;;1.37;0.30;;;;;;;3.82;85.12;94214.84;4385368;32;20337;-60
2021/12/05 04:14:34;;;;;;;5.37;0.40;;;;;;;3.81;84.13;94219.31;4381481;32;20322;-60
2021/12/05 04:17:01;;;;;;;1.17;0.50;;;;;;;3.70;84.16;94217.88;4380148;32;20299;-60
2021/12/05 04:19:26;;;;;;;1.63;0.30;;;;;;;3.85;83.99;94209.84;4380728;32;20349;-60
2021/12/05 04:21:52;;;;;;;1.67;0.40;;;;;;;3.71;83.48;94206.31;4379212;32;22123;-60
2021/12/05 04:24:18;;;;;;;0.70;0.50;;;;;;;3.60;83.82;94207.47;4378015;32;20238;-60
2021/12/05 04:26:44;;;;;;;2.20;0.40;;;;;;;3.73;83.24;94201.59;4384841;32;20182;-60
2021/12/05 04:29:09;;;;;;;2.20;0.67;;;;;;;3.69;84.27;94209.22;4379030;32;20288;-60
2021/12/05 04:31:36;;;;;;;2.80;0.67;;;;;;;3.67;83.88;94205.31;4381516;32;20246;-60
2021/12/05 04:34:03;;;;;;;2.57;0.50;;;;;;;3.67;84.03;94203.47;4382518;32;20184;-60
2021/12/05 04:36:28;;;;;;;1.90;0.77;;;;;;;3.81;84.44;94203.59;4384162;32;20274;-60
2021/12/05 04:38:53;;;;;;;2.97;0.73;;;;;;;3.54;85.34;94198.06;4381257;32;20308;-60
2021/12/05 04:41:19;;;;;;;0.93;0.70;;;;;;;3.82;84.70;94199.91;4387626;32;20209;-60
2021/12/05 04:43:46;;;;;;;0.70;0.70;;;;;;;3.85;84.69;94194.09;4383237;32;20218;-60
2021/12/05 04:46:15;;;;;;;2.07;1.00;;;;;;;3.94;84.76;94199.53;4381925;32;20258;-60
2021/12/05 04:48:42;;;;;;;0.73;0.53;;;;;;;3.96;84.15;94198.16;4379293;32;20284;-60
2021/12/05 04:51:08;;;;;;;2.73;0.83;;;;;;;4.06;84.77;94198.06;4375914;32;20268;-60
2021/12/05 04:53:34;;;;;;;1.60;0.83;;;;;;;4.21;83.95;94191.06;4385144;32;20312;-60
2021/12/05 04:56:00;;;;;;;0.83;0.50;;;;;;;3.84;85.22;94192.53;4382747;32;20188;-60
2021/12/05 04:58:26;;;;;;;1.67;0.60;;;;;;;3.81;86.20;94195.72;4390606;32;20290;-60
2021/12/05 05:00:54;;;;;;;1.10;0.90;;;;;;;3.73;86.14;94191.09;4381545;32;20381;-60
2021/12/05 05:03:20;;;;;;;1.03;0.63;;;;;;;3.68;86.42;94185.91;4387428;32;20189;-60
2021/12/05 05:05:52;;;;;;;1.03;0.63;;;;;;;3.77;86.19;94186.84;4386352;32;20306;-60
2021/12/05 05:08:18;;;;;;;1.23;0.53;;;;;;;3.69;86.67;94182.22;4382256;32;20238;-60
2021/12/05 05:10:44;;;;;;;1.57;0.70;;;;;;;3.72;86.40;94185.06;4384081;32;20304;-60
2021/12/05 05:13:10;;;;;;;1.23;0.73;;;;;;;3.57;87.22;94189.66;4380806;32;20297;-60
2021/12/05 05:15:35;;;;;;;3.40;0.90;;;;;;;3.85;86.75;94188.06;4386998;32;20207;-60
2021/12/05 05:18:02;;;;;;;0.63;0.63;;;;;;;3.85;86.28;94188.84;4380772;32;20185;-60
2021/12/05 05:20:40;;;;;;;0.63;0.60;;;;;;;3.80;86.18;94187.06;4374917;32;20204;-60
2021/12/05 05:45:42;;;;;;;0.67;0.40;;;;;;;4.63;82.87;94183.16;4376190;32;20272;-60
2021/12/05 05:48:16;;;;;;;2.10;0.80;;;;;;;4.68;82.35;94192.81;4373590;32;20300;-60
2021/12/05 05:50:21;;;;;;;1.33;0.93;;;;;;;4.77;81.57;94184.03;4377165;32;20385;-60
2021/12/05 05:52:48;;;;;;;1.03;0.73;;;;;;;4.68;81.56;94198.88;4381773;32;20264;-60
2021/12/05 05:55:13;;;;;;;1.20;0.60;;;;;;;4.62;82.42;94186.84;4386736;32;20273;-60
2021/12/05 06:00:17;;;;;;;0.53;0.50;;;;;;;4.68;81.60;94190.19;4385600;32;20235;-60
2021/12/05 06:05:30;;;;;;;2.17;0.70;;;;;;;4.86;81.36;94191.25;4377356;32;20291;-60
2021/12/05 06:07:55;;;;;;;1.80;0.73;;;;;;;4.62;81.87;94192.09;4388397;32;20303;-60
2021/12/05 06:10:23;;;;;;;1.30;0.57;;;;;;;4.55;82.38;94202.19;4378505;32;20312;-60
2021/12/05 06:12:50;;;;;;;4.20;0.80;;;;;;;4.47;82.80;94197.56;4390647;32;20200;-60
2021/12/05 06:15:17;;;;;;;1.03;0.67;;;;;;;4.36;83.31;94210.06;4381394;32;20307;-60
2021/12/05 06:17:43;;;;;;;2.40;0.90;;;;;;;4.36;83.23;94202.19;4375625;32;20273;-60
2021/12/05 06:20:13;;;;;;;1.43;0.90;;;;;;;4.28;83.81;94204.62;4383795;32;20287;-60
2021/12/05 06:22:39;;;;;;;3.40;0.70;;;;;;;4.26;84.09;94204.12;4387794;32;20177;-60
2021/12/05 06:25:07;;;;;;;1.63;0.80;;;;;;;4.13;84.24;94206.38;4378487;32;20291;-60
2021/12/05 06:27:32;;;;;;;2.10;1.00;;;;;;;4.23;84.36;94205.47;4380306;32;20284;-60
2021/12/05 06:30:12;;;;;;;4.10;1.00;;;;;;;4.09;84.97;94205.38;4386399;32;20298;-60
2021/12/05 06:38:07;;;;;;;2.00;0.60;;;;;;;4.17;84.18;94217.09;4385019;32;20290;-60
2021/12/05 06:45:55;;;;;;;3.33;0.93;;;;;;;4.43;83.54;94207.84;4389172;32;20269;-60
2021/12/05 06:46:10;;;;;;;2.43;0.73;;;;;;;4.54;82.67;94218.25;4378691;32;20373;-60
2021/12/05 06:48:36;;;;;;;1.63;0.80;;;;;;;4.37;83.14;94224.72;4375870;32;20363;-60
2021/12/05 06:51:02;;;;;;;2.30;0.80;;;;;;;4.40;83.47;94228.63;4380946;32;20315;-60
2021/12/05 06:53:27;;;;;;;1.93;0.90;;;;;;;4.42;83.48;94229.13;4374923;32;20241;-60
2021/12/05 06:55:53;;;;;;;1.20;0.87;;;;;;;4.43;83.34;94228.06;4377328;32;20291;-60
2021/12/05 06:58:18;;;;;;;2.00;0.67;;;;;;;4.38;83.48;94228.12;4378270;32;20185;-60
2021/12/05 07:00:43;;;;;;;1.20;0.70;;;;;;;4.45;83.14;94231.19;4380267;32;20188;-60
2021/12/05 07:03:10;;;;;;;1.83;0.87;;;;;;;4.55;83.07;94232.94;4389859;32;20240;-60
2021/12/05 07:05:56;;;;;;;1.13;0.80;;;;;;;4.46;82.78;94230.13;4384759;32;20176;-60
2021/12/05 07:08:25;;;;;;;2.33;0.90;;;;;;;4.51;83.01;94227.47;4379675;32;20333;-60
2021/12/05 07:10:56;;;;;;;2.73;0.70;;;;;;;4.75;81.80;94228.19;4385081;32;20268;-60
2021/12/05 07:16:08;;;;;;;1.93;0.93;;;;;;;4.61;82.57;94232.56;4386072;32;20350;-60
2021/12/05 07:18:42;;;;;;;3.93;0.80;;;;;;;4.78;81.96;94232.09;4378669;32;20336;-61
2021/12/05 07:27:02;;;;;;;2.67;0.83;;;;;;;4.34;83.29;94227.16;4383474;32;20408;-60
2021/12/05 07:42:50;;;;;;;1.23;0.87;;;;;;;4.16;84.33;94210.28;4378841;32;20264;-60
2021/12/05 07:45:21;;;;;;;1.33;0.70;;;;;;;4.19;84.56;94208.94;4379607;32;20354;-60
2021/12/05 07:47:51;;;;;;;1.37;0.70;;;;;;;4.16;84.82;94193.78;4390157;32;20272;-60
2021/12/05 07:50:19;;;;;;;1.80;0.70;;;;;;;4.18;84.17;94200.28;4385278;32;20270;-60
2021/12/05 07:52:50;;;;;;;1.67;0.83;;;;;;;4.37;83.15;94201.09;4387883;32;20283;-60
2021/12/05 07:55:28;;;;;;;0.73;0.70;;;;;;;4.23;83.97;94207.31;4382657;32;20277;-60
2021/12/05 07:58:14;;;;;;;1.53;0.90;;;;;;;4.26;84.12;94212.00;4382194;32;20351;-60
2021/12/05 08:16:48;;;;;;;1.87;0.90;;;;;;;4.02;85.69;94204.94;4373680;32;20290;-60
2021/12/05 08:19:14;;;;;;;1.30;0.70;;;;;;;3.93;85.43;94211.88;4379373;32;20319;-60
2021/12/05 08:21:40;;;;;;;0.70;0.70;;;;;;;4.00;85.46;94207.03;4381972;32;20346;-60
2021/12/05 08:24:06;;;;;;;2.83;0.83;;;;;;;4.05;85.44;94212.25;4385266;32;20181;-60
2021/12/05 08:26:32;;;;;;;1.43;0.60;;;;;;;4.01;85.34;94207.81;4387540;32;20184;-60
2021/12/05 08:29:06;;;;;;;0.63;0.60;;;;;;;4.16;84.63;94199.78;4378993;32;20185;-60
2021/12/05 09:21:02;;;;;;;1.03;0.73;;;;;;;5.46;78.65;94229.75;4376569;32;20299;-60
2021/12/05 09:38:49;;;;;;;1.00;0.50;;;;;;;5.56;78.11;94220.16;4375984;32;20287;-60
2021/12/05 10:07:14;;;;;;;2.63;1.00;;;;;;;5.22;78.57;94204.62;4374271;32;20291;-61
2021/12/05 10:10:36;;;;;;;2.70;0.97;;;;;;;5.52;77.25;94210.19;4391333;32;20286;-60
2021/12/05 10:26:55;;;;;;;1.97;0.90;;;;;;;5.30;77.53;94210.03;4390179;32;20287;-60
2021/12/05 10:35:50;;;;;;;1.00;0.60;;;;;;;5.48;75.51;94201.31;4388540;32;20313;-61
2021/12/05 10:38:24;;;;;;;0.60;0.60;;;;;;;5.30;76.21;94202.16;4383802;32;20267;-60
2021/12/05 10:41:02;;;;;;;0.70;0.57;;;;;;;5.20;76.08;94206.81;4372376;32;20379;-60
2021/12/05 10:43:29;;;;;;;1.37;0.77;;;;;;;5.43;75.54;94200.63;4396483;32;20277;-61
2021/12/05 10:46:08;;;;;;;1.13;0.90;;;;;;;5.47;75.14;94202.38;4380150;32;20347;-60
2021/12/05 10:48:37;;;;;;;2.10;0.60;;;;;;;5.63;75.16;94210.00;4380762;32;20346;-61
2021/12/05 10:51:09;;;;;;;3.07;1.00;;;;;;;5.67;74.97;94205.75;4383349;32;20292;-60
2021/12/05 10:53:34;;;;;;;2.33;1.00;;;;;;;5.51;74.82;94206.00;4373954;32;20348;-61
2021/12/05 10:56:23;;;;;;;2.10;0.80;;;;;;;5.54;73.85;94199.41;4379020;32;20295;-60
2021/12/05 10:58:54;;;;;;;1.07;0.70;;;;;;;5.46;73.82;94208.72;4385892;32;20275;-60
2021/12/05 11:01:31;;;;;;;3.07;0.87;;;;;;;5.42;73.97;94197.19;4385086;32;20281;-60
2021/12/05 11:04:08;;;;;;;1.80;0.80;;;;;;;5.50;75.01;94201.81;4387730;32;20272;-60
2021/12/05 11:06:41;;;;;;;1.17;0.73;;;;;;;5.58;74.48;94203.00;4376199;32;20291;-61
2021/12/05 11:09:11;;;;;;;3.13;1.00;;;;;;;5.53;74.18;94200.47;4384983;32;20313;-60
2021/12/05 11:11:37;;;;;;;1.30;0.80;;;;;;;5.62;73.56;94203.19;4390089;32;20276;-60
2021/12/05 11:14:08;;;;;;;1.93;0.80;;;;;;;5.62;73.34;94198.72;4389853;32;20285;-60
2021/12/05 11:16:41;;;;;;;2.70;0.80;;;;;;;5.63;73.04;94202.91;4382318;32;20276;-61
2021/12/05 11:19:28;;;;;;;1.00;0.90;;;;;;;5.77;72.38;94201.09;4385958;32;20285;-61
2021/12/05 11:21:57;;;;;;;2.93;1.10;;;;;;;6.06;71.45;94202.69;4380154;32;20385;-60
2021/12/05 11:24:35;;;;;;;1.53;0.67;;;;;;;6.07;71.63;94205.03;4378399;32;20334;-60
2021/12/05 11:27:05;;;;;;;3.50;0.73;;;;;;;5.83;72.12;94199.13;4378405;32;20271;-60
2021/12/05 11:29:47;;;;;;;0.60;0.60;;;;;;;5.87;72.24;94205.38;4385472;32;20291;-60
2021/12/05 11:32:27;;;;;;;3.10;0.93;;;;;;;5.79;72.77;94203.44;4384767;32;20267;-60
2021/12/05 11:34:53;;;;;;;1.40;0.80;;;;;;;5.75;71.85;94197.19;4379411;32;20306;-60
2021/12/05 11:37:18;;;;;;;3.70;0.90;;;;;;;5.85;72.18;94197.00;4386007;32;20296;-60
2021/12/05 11:39:43;;;;;;;0.90;0.63;;;;;;;5.88;71.66;94199.03;4375164;32;20189;-60
2021/12/05 11:42:17;;;;;;;2.63;0.70;;;;;;;5.70;72.29;94197.28;4381367;32;20212;-60
2021/12/05 11:44:44;;;;;;;2.07;0.77;;;;;;;5.78;72.33;94201.88;4384943;32;20233;-60
2021/12/05 11:47:15;;;;;;;2.03;0.90;;;;;;;5.72;71.78;94200.41;4373380;32;20280;-60
2021/12/05 11:49:41;;;;;;;2.13;0.80;;;;;;;5.73;71.64;94202.75;4382161;32;20284;-60
2021/12/05 11:52:08;;;;;;;1.07;0.60;;;;;;;5.86;70.82;94198.56;4376763;32;20275;-60
2021/12/05 11:54:37;;;;;;;1.33;0.70;;;;;;;5.88;70.52;94204.31;4379432;32;20284;-62
2021/12/05 11:57:11;;;;;;;1.13;1.03;;;;;;;5.92;70.68;94196.66;4382836;32;20303;-60
2021/12/05 11:59:36;;;;;;;1.17;0.60;;;;;;;5.70;71.80;94192.78;4366810;32;20304;-60
2021/12/05 12:02:08;;;;;;;2.87;0.80;;;;;;;5.69;71.20;94201.75;4384590;32;20276;-60
2021/12/05 12:05:04;;;;;;;1.23;0.77;;;;;;;5.73;70.93;94196.69;4401633;32;20181;-62
2021/12/05 12:07:38;;;;;;;3.07;1.00;;;;;;;5.72;70.58;94195.91;4378150;32;20272;-62
2021/12/05 12:10:12;;;;;;;1.47;0.80;;;;;;;5.63;70.99;94189.75;4386155;32;20277;-62
2021/12/05 12:12:41;;;;;;;2.20;0.80;;;;;;;5.59;70.96;94193.28;4381165;32;20271;-62
2021/12/05 12:15:08;;;;;;;1.43;0.90;;;;;;;5.70;69.85;94189.38;4389556;32;20295;-62
2021/12/05 12:17:34;;;;;;;1.13;0.60;;;;;;;5.69;68.98;94188.59;4378476;32;20334;-62
2021/12/05 12:20:00;;;;;;;1.43;0.80;;;;;;;5.75;68.70;94184.03;4390093;32;20275;-62
2021/12/05 12:22:27;;;;;;;3.43;1.17;;;;;;;5.51;69.97;94187.59;4384552;32;20286;-62
2021/12/05 12:24:57;;;;;;;2.50;1.07;;;;;;;5.47;70.38;94185.81;4382596;32;20289;-62
2021/12/05 12:27:23;;;;;;;2.23;0.70;;;;;;;5.53;69.20;94180.19;4388487;32;20295;-62
2021/12/05 12:29:50;;;;;;;1.80;0.70;;;;;;;5.62;69.02;94182.94;4381870;32;20272;-62
2021/12/05 12:32:22;;;;;;;6.27;0.90;;;;;;;5.70;69.50;94184.91;4383336;32;20274;-62
2021/12/05 12:34:57;;;;;;;1.93;0.93;;;;;;;5.65;68.98;94189.47;4379793;32;20277;-62
2021/12/05 12:37:23;;;;;;;4.70;0.87;;;;;;;5.52;69.46;94185.75;4384873;32;20378;-62
2021/12/05 12:39:51;;;;;;;1.07;0.63;;;;;;;5.60;70.00;94186.94;4380916;32;20304;-62
2021/12/05 12:42:23;;;;;;;2.87;0.90;;;;;;;5.64;69.63;94182.62;4377940;32;20200;-62
2021/12/05 12:45:15;;;;;;;4.00;1.23;;;;;;;5.67;70.28;94189.94;4383455;32;20280;-62
2021/12/05 12:47:43;;;;;;;2.07;1.20;;;;;;;5.52;70.33;94189.16;4386134;32;20281;-62
2021/12/05 12:50:38;;;;;;;3.20;0.93;;;;;;;5.69;70.28;94190.44;4379075;32;20355;-62
2021/12/05 12:53:11;;;;;;;4.37;1.83;;;;;;;5.89;69.92;94187.47;4387065;32;20342;-67
2021/12/05 12:55:39;;;;;;;1.57;1.43;;;;;;;5.98;69.06;94180.47;4386649;32;20284;-62
2021/12/05 12:58:08;;;;;;;2.37;1.70;;;;;;;5.97;69.09;94188.66;4384627;32;20268;-62
2021/12/05 13:00:38;;;;;;;4.20;1.33;;;;;;;6.06;68.80;94185.03;4387975;32;20272;-60
2021/12/05 13:11:19;;;;;;;2.93;0.83;;;;;;;6.37;66.52;94181.81;4383207;32;20292;-60
2021/12/05 13:13:57;;;;;;;2.33;0.80;;;;;;;6.33;67.04;94180.84;4386963;32;20359;-60
2021/12/05 13:16:28;;;;;;;1.70;1.00;;;;;;;6.47;66.40;94181.59;4375785;32;20348;-60
2021/12/05 13:19:07;;;;;;;2.23;0.93;;;;;;;6.14;67.81;94181.75;4383584;32;21670;-60
2021/12/05 13:21:38;;;;;;;1.33;1.10;;;;;;;6.21;68.31;94184.00;4383967;32;20338;-60
2021/12/05 13:24:31;;;;;;;1.03;0.90;;;;;;;6.25;68.37;94178.87;4387766;32;20268;-60
2021/12/05 13:27:06;;;;;;;4.17;1.97;;;;;;;6.35;67.50;94179.47;4368371;32;20284;-60
2021/12/05 13:29:37;;;;;;;2.93;1.10;;;;;;;6.46;66.45;94183.47;4379271;32;20332;-60
2021/12/05 13:32:24;;;;;;;3.30;1.20;;;;;;;6.28;67.52;94175.69;4392985;32;20279;-60
2021/12/05 13:35:01;;;;;;;0.70;0.70;;;;;;;6.32;67.91;94187.19;4380462;32;20362;-60
2021/12/05 13:37:33;;;;;;;0.83;0.70;;;;;;;6.15;67.54;94191.19;4385173;32;20315;-60
2021/12/05 13:40:19;;;;;;;0.83;0.70;;;;;;;6.39;66.76;94188.38;4381551;32;20353;-60
2021/12/05 13:42:48;;;;;;;2.50;0.90;;;;;;;6.39;67.05;94190.22;4382121;32;20316;-60
2021/12/05 13:45:19;;;;;;;2.17;0.97;;;;;;;6.22;67.74;94192.66;4377501;32;20325;-60
2021/12/05 13:47:58;;;;;;;1.90;0.80;;;;;;;6.08;68.45;94201.34;4381816;32;20340;-60
2021/12/05 13:50:28;;;;;;;2.23;0.90;;;;;;;6.14;68.16;94197.53;4387888;32;20324;-60
2021/12/05 13:53:01;;;;;;;1.27;0.93;;;;;;;6.29;67.38;94198.31;4378384;32;27709;-60
2021/12/05 13:55:50;;;;;;;3.03;0.80;;;;;;;6.31;65.66;94204.06;4384300;32;20277;-60
2021/12/05 13:58:17;;;;;;;2.40;1.23;;;;;;;6.26;65.86;94198.88;4386515;32;20268;-60
2021/12/05 14:00:51;;;;;;;3.43;1.07;;;;;;;6.38;65.70;94192.06;4386115;32;20296;-60
2021/12/05 14:03:52;;;;;;;2.53;1.10;;;;;;;5.85;67.05;94202.25;4380011;32;20285;-60
2021/12/05 14:06:52;;;;;;;3.80;1.20;;;;;;;5.65;68.94;94206.03;4384586;32;20284;-60
2021/12/05 14:09:42;;;;;;;1.03;0.90;;;;;;;6.03;68.49;94204.06;4384052;32;20288;-60
2021/12/05 14:12:24;;;;;;;2.43;1.30;;;;;;;6.13;69.35;94198.59;4385263;32;20291;-60
2021/12/05 14:14:59;;;;;;;1.37;1.27;;;;;;;5.90;68.70;94202.19;4379395;32;20298;-60
2021/12/05 14:17:40;;;;;;;2.47;1.30;;;;;;;6.10;68.24;94201.81;4383725;32;20387;-60
2021/12/05 14:20:07;;;;;;;1.63;1.20;;;;;;;6.10;68.27;94199.19;4392101;32;20330;-60
2021/12/05 14:22:35;;;;;;;3.90;1.30;;;;;;;5.97;68.99;94199.19;4384796;32;20281;-60
2021/12/05 14:25:05;;;;;;;1.73;1.30;;;;;;;6.13;69.26;94203.88;4384466;32;20272;-60
2021/12/05 14:27:34;;;;;;;3.43;1.27;;;;;;;6.20;69.05;94204.28;4381788;32;20322;-60
2021/12/05 14:30:00;;;;;;;2.40;1.30;;;;;;;5.96;70.13;94201.03;4384620;32;20315;-60
2021/12/05 14:32:32;;;;;;;2.50;1.40;;;;;;;5.77;71.26;94205.56;4386443;32;20276;-60
2021/12/05 14:35:03;;;;;;;1.80;1.23;;;;;;;5.66;72.59;94209.44;4371640;32;20350;-60
2021/12/05 14:37:33;;;;;;;3.77;1.10;;;;;;;5.80;72.50;94205.00;4386520;32;20280;-60
2021/12/05 14:40:03;;;;;;;2.03;1.07;;;;;;;5.84;72.49;94212.00;4384827;32;20416;-60
2021/12/05 14:42:33;;;;;;;2.90;1.00;;;;;;;5.85;72.58;94207.53;4380498;32;20328;-60
2021/12/05 14:45:12;;;;;;;1.43;0.87;;;;;;;5.68;73.21;94207.31;4383158;32;20292;-60
2021/12/05 14:47:42;;;;;;;1.63;0.90;;;;;;;5.67;74.04;94211.00;4381223;32;20351;-60
2021/12/05 14:50:20;;;;;;;1.80;1.23;;;;;;;5.68;74.04;94217.81;4382516;32;20290;-60
2021/12/05 14:52:49;;;;;;;2.67;1.40;;;;;;;5.51;76.81;94224.41;4379033;32;20277;-60
2021/12/05 14:55:18;;;;;;;1.43;1.30;;;;;;;5.39;79.05;94234.62;4376598;32;20288;-60
2021/12/05 14:57:59;;;;;;;1.97;1.43;;;;;;;5.29;80.18;94231.34;4389756;32;20350;-60
2021/12/05 15:00:30;;;;;;;2.53;1.80;;;;;;;5.08;81.85;94231.66;4383658;32;20355;-60
2021/12/05 15:03:13;;;;;;;4.57;2.13;;;;;;;5.16;82.11;94238.13;4376300;32;20300;-60
2021/12/05 15:05:46;;;;;;;1.70;1.50;;;;;;;5.09;82.74;94238.47;4382209;32;20321;-60
2021/12/05 15:08:14;;;;;;;4.57;3.57;;;;;;;5.04;83.45;94243.81;4383805;32;20287;-60
2021/12/05 15:10:42;;;;;;;3.73;2.53;;;;;;;5.04;83.35;94240.38;4387895;32;20336;-60
2021/12/05 15:13:10;;;;;;;3.33;3.03;;;;;;;4.80;84.77;94253.59;4376790;32;20336;-60
2021/12/05 15:15:36;;;;;;;3.50;2.00;;;;;;;4.87;84.48;94261.13;4387952;32;20276;-60
2021/12/05 15:18:02;;;;;;;1.80;1.70;;;;;;;4.64;85.33;94257.47;4379122;32;20299;-60
2021/12/05 15:20:32;;;;;;;3.53;2.73;;;;;;;4.50;85.27;94262.66;4373993;32;20334;-60
2021/12/05 15:23:06;;;;;;;1.80;1.70;;;;;;;4.47;85.56;94260.59;4385263;32;20269;-60
2021/12/05 15:25:33;;;;;;;3.03;2.60;;;;;;;4.41;85.83;94267.72;4389546;32;20294;-60
2021/12/05 15:27:59;;;;;;;2.73;2.00;;;;;;;4.26;86.20;94272.38;4390045;32;20279;-60
2021/12/05 15:30:28;;;;;;;2.70;2.50;;;;;;;4.46;85.87;94272.94;4387849;32;20359;-60
2021/12/05 15:33:02;;;;;;;2.53;2.30;;;;;;;4.16;86.67;94278.50;4383685;32;20276;-60
2021/12/05 15:35:29;;;;;;;2.13;1.77;;;;;;;4.19;87.10;94274.53;4383871;32;20334;-60
2021/12/05 15:38:08;;;;;;;2.70;2.50;;;;;;;4.05;87.25;94277.84;4379168;32;20375;-60
2021/12/05 15:40:36;;;;;;;2.73;1.70;;;;;;;3.98;88.27;94279.22;4385459;32;20280;-60
2021/12/05 15:43:11;;;;;;;2.30;2.10;;;;;;;4.13;87.67;94289.59;4381604;32;20302;-60
2021/12/05 15:45:37;;;;;;;3.70;2.70;;;;;;;3.93;88.03;94287.94;4381658;32;20283;-62
2021/12/05 15:48:03;;;;;;;2.60;2.13;;;;;;;3.92;88.35;94294.25;4379202;32;20315;-62
2021/12/05 15:50:35;;;;;;;2.90;2.60;;;;;;;4.13;87.84;94287.75;4377709;32;20280;-62
2021/12/05 15:53:05;;;;;;;2.13;1.77;;;;;;;4.22;87.36;94281.88;4374169;32;20295;-62
2021/12/05 15:55:40;;;;;;;2.10;1.70;;;;;;;4.29;87.02;94290.19;4382421;32;20288;-62
2021/12/05 15:58:09;;;;;;;2.00;1.80;;;;;;;4.12;87.61;94294.06;4382298;32;20299;-62
2021/12/05 16:00:39;;;;;;;3.03;2.07;;;;;;;3.97;88.10;94294.19;4380213;32;20357;-62
2021/12/05 16:03:11;;;;;;;5.73;5.27;;;;;;;4.18;87.27;94291.34;4379560;32;20336;-63
2021/12/05 16:05:38;;;;;;;4.40;3.40;;;;;;;3.78;88.96;94288.06;4383747;32;20311;-61
2021/12/05 16:08:06;;;;;;;3.57;3.37;;;;;;;3.69;89.87;94293.13;4376333;32;20280;-62
2021/12/05 16:10:33;;;;;;;7.57;4.07;;;;;;;3.86;89.49;94297.19;4375522;32;20285;-61
2021/12/05 16:13:12;;;;;;;4.07;3.87;;;;;;;3.70;90.03;94305.19;4378740;32;20292;-61
2021/12/05 16:15:39;;;;;;;4.27;3.93;;;;;;;3.42;91.39;94311.16;4371125;32;20318;-62
2021/12/05 16:18:04;;;;;;;4.33;3.93;;;;;;;3.16;92.34;94309.75;4381991;32;20311;-62
2021/12/05 16:20:41;;;;;;;4.27;3.97;;;;;;;3.00;93.70;94316.94;4384854;32;20321;-61
2021/12/05 16:23:18;;;;;;;2.93;2.57;;;;;;;3.10;93.52;94317.66;4379629;32;20232;-61
2021/12/05 16:26:05;;;;;;;3.77;3.10;;;;;;;3.06;93.21;94319.25;4373292;32;20382;-62
2021/12/05 16:28:35;;;;;;;2.93;2.30;;;;;;;2.96;93.96;94314.06;4382120;32;20333;-60
2021/12/05 16:31:10;;;;;;;2.87;2.67;;;;;;;3.41;92.85;94318.25;4386740;32;20279;-60
2021/12/05 16:33:36;;;;;;;2.83;2.53;;;;;;;3.32;92.58;94322.53;4374412;32;20302;-60
2021/12/05 16:36:04;;;;;;;2.63;2.43;;;;;;;3.68;91.38;94324.88;4383535;32;20269;-60
2021/12/05 16:38:31;;;;;;;3.33;1.90;;;;;;;3.61;90.37;94324.41;4378735;32;20180;-60
2021/12/05 16:41:05;;;;;;;2.90;1.90;;;;;;;3.48;91.35;94325.03;4375814;32;20276;-60
2021/12/05 16:43:33;;;;;;;3.57;1.93;;;;;;;3.42;90.96;94327.69;4401834;32;20272;-60
2021/12/05 16:46:17;;;;;;;2.30;2.10;;;;;;;3.16;92.68;94334.12;4381255;32;20368;-60
2021/12/05 16:48:44;;;;;;;3.57;2.40;;;;;;;3.30;92.35;94340.34;4398791;32;20308;-60
2021/12/05 16:51:26;;;;;;;4.53;3.50;;;;;;;3.32;92.07;94338.25;4381808;32;20314;-60
2021/12/05 16:54:01;;;;;;;3.10;2.80;;;;;;;3.44;91.57;94336.06;4384215;32;20272;-60
2021/12/05 16:56:48;;;;;;;3.63;3.27;;;;;;;3.54;90.94;94339.63;4383957;32;20273;-62
2021/12/05 16:59:24;;;;;;;5.83;5.33;;;;;;;3.19;91.53;94344.06;4382045;32;20269;-62
2021/12/05 17:02:18;;;;;;;3.50;3.30;;;;;;;3.20;92.51;94342.22;4387062;32;20276;-59
2021/12/05 17:04:59;;;;;;;3.73;3.53;;;;;;;2.99;93.25;94339.72;4376815;32;20304;-59
2021/12/05 17:07:56;;;;;;;3.10;2.70;;;;;;;3.00;93.66;94341.28;4377811;32;20390;-59
2021/12/05 17:10:21;;;;;;;3.13;2.50;;;;;;;2.97;93.62;94338.41;4379053;32;20306;-60
2021/12/05 17:12:52;;;;;;;2.33;2.13;;;;;;;3.21;92.98;94341.97;4380363;32;20280;-59
2021/12/05 17:15:21;;;;;;;1.97;1.87;;;;;;;3.27;92.63;94346.13;4387920;32;20192;-60